createdAt,value
2019-05-12T00:00:01.213Z,0.00
2019-05-12T00:01:01.297Z,0.00
2019-05-12T00:02:01.288Z,0.00
2019-05-12T00:03:01.326Z,0.00
2019-05-12T00:04:01.367Z,0.00
2019-05-12T00:05:01.402Z,0.00
2019-05-12T00:06:01.443Z,0.00
2019-05-12T00:07:01.481Z,0.00
2019-05-12T00:08:01.518Z,0.00
2019-05-12T00:09:01.556Z,0.00
2019-05-12T00:10:01.599Z,0.00
2019-05-12T00:11:01.634Z,0.00
2019-05-12T00:12:01.673Z,0.00
2019-05-12T00:13:01.727Z,0.00
2019-05-12T00:14:01.750Z,0.00
2019-05-12T00:15:01.792Z,0.00
2019-05-12T00:16:01.825Z,0.00
2019-05-12T00:17:01.867Z,0.00
2019-05-12T00:18:01.906Z,0.00
2019-05-12T00:19:01.944Z,0.00
2019-05-12T00:20:01.995Z,0.00
2019-05-12T00:21:02.020Z,0.00
2019-05-12T00:22:02.054Z,0.00
2019-05-12T00:23:02.096Z,0.00
2019-05-12T00:24:02.134Z,0.00
2019-05-12T00:25:02.172Z,0.00
2019-05-12T00:26:02.211Z,0.00
2019-05-12T00:27:02.352Z,0.00
2019-05-12T00:28:02.290Z,0.00
2019-05-12T00:29:02.329Z,0.00
2019-05-12T00:30:02.387Z,0.00
2019-05-12T00:31:02.401Z,0.00
2019-05-12T00:32:02.437Z,0.00
2019-05-12T00:33:02.480Z,0.00
2019-05-12T00:34:02.514Z,0.00
2019-05-12T00:35:02.554Z,0.00
2019-05-12T00:36:02.595Z,0.00
2019-05-12T00:37:02.628Z,0.00
2019-05-12T00:38:02.672Z,0.00
2019-05-12T00:39:02.712Z,0.00
2019-05-12T00:40:02.747Z,0.00
2019-05-12T00:41:02.794Z,0.00
2019-05-12T00:42:02.823Z,0.00
2019-05-12T00:43:02.859Z,0.00
2019-05-12T00:44:02.898Z,0.00
2019-05-12T00:45:02.946Z,0.00
2019-05-12T00:46:02.974Z,0.00
2019-05-12T00:47:03.012Z,0.00
2019-05-12T00:48:03.051Z,0.00
2019-05-12T00:49:03.090Z,0.00
2019-05-12T00:50:03.135Z,0.00
2019-05-12T00:51:03.166Z,0.00
2019-05-12T00:52:03.207Z,0.00
2019-05-12T00:53:03.304Z,0.00
2019-05-12T00:54:03.291Z,0.00
2019-05-12T00:55:03.321Z,0.00
2019-05-12T00:56:03.360Z,0.00
2019-05-12T00:57:03.405Z,0.00
2019-05-12T00:58:03.436Z,0.00
2019-05-12T00:59:03.475Z,0.00
2019-05-12T01:00:03.519Z,0.00
2019-05-12T01:01:03.555Z,0.00
2019-05-12T01:02:03.597Z,0.00
2019-05-12T01:03:03.639Z,0.00
2019-05-12T01:04:03.667Z,0.00
2019-05-12T01:05:03.704Z,0.00
2019-05-12T01:06:03.742Z,0.00
2019-05-12T01:07:03.780Z,0.00
2019-05-12T01:08:03.834Z,0.00
2019-05-12T01:09:03.858Z,0.00
2019-05-12T01:10:05.041Z,0.00
2019-05-12T01:11:03.945Z,0.00
2019-05-12T01:12:03.972Z,0.00
2019-05-12T01:13:04.012Z,0.00
2019-05-12T01:14:04.050Z,0.00
2019-05-12T01:15:04.087Z,0.00
2019-05-12T01:16:04.127Z,0.00
2019-05-12T01:17:04.166Z,0.00
2019-05-12T01:18:04.203Z,0.00
2019-05-12T01:19:04.246Z,0.00
2019-05-12T01:20:04.282Z,0.00
2019-05-12T01:21:04.321Z,0.00
2019-05-12T01:22:04.357Z,0.00
2019-05-12T01:23:04.395Z,0.00
2019-05-12T01:24:04.433Z,0.00
2019-05-12T01:25:04.472Z,0.00
2019-05-12T01:26:04.510Z,0.00
2019-05-12T01:27:04.553Z,0.00
2019-05-12T01:28:04.616Z,0.00
2019-05-12T01:29:04.636Z,0.00
2019-05-12T01:30:04.671Z,0.00
2019-05-12T01:31:04.705Z,0.00
2019-05-12T01:32:04.739Z,0.00
2019-05-12T01:33:04.779Z,0.00
2019-05-12T01:34:04.824Z,0.00
2019-05-12T01:35:04.855Z,0.00
2019-05-12T01:36:04.892Z,0.00
2019-05-12T01:37:04.931Z,0.00
2019-05-12T01:38:04.968Z,0.00
2019-05-12T01:39:05.009Z,0.00
2019-05-12T01:40:05.045Z,0.00
2019-05-12T01:41:05.086Z,0.00
2019-05-12T01:42:05.121Z,0.00
2019-05-12T01:43:05.160Z,0.00
2019-05-12T01:44:05.197Z,0.00
2019-05-12T01:45:05.239Z,0.00
2019-05-12T01:46:05.273Z,0.00
2019-05-12T01:47:05.324Z,0.00
2019-05-12T01:48:08.330Z,0.00
2019-05-12T01:49:05.396Z,0.00
2019-05-12T01:50:05.427Z,0.00
2019-05-12T01:51:05.465Z,0.00
2019-05-12T01:52:05.512Z,0.00
2019-05-12T01:53:07.926Z,0.00
2019-05-12T01:54:13.606Z,0.00
2019-05-12T01:55:07.977Z,0.00
2019-05-12T01:56:07.717Z,0.00
2019-05-12T01:57:07.979Z,0.00
2019-05-12T01:58:08.162Z,0.00
2019-05-12T01:59:07.956Z,0.00
2019-05-12T02:00:07.952Z,0.00
2019-05-12T02:01:08.065Z,0.00
2019-05-12T02:02:08.459Z,0.00
2019-05-12T02:03:05.923Z,0.00
2019-05-12T02:04:07.780Z,0.00
2019-05-12T02:05:08.216Z,0.00
2019-05-12T02:06:08.266Z,0.00
2019-05-12T02:07:08.235Z,0.00
2019-05-12T02:08:06.118Z,0.00
2019-05-12T02:09:07.982Z,0.00
2019-05-12T02:10:06.202Z,0.00
2019-05-12T02:11:07.911Z,0.00
2019-05-12T02:12:08.175Z,0.00
2019-05-12T02:13:07.905Z,0.00
2019-05-12T02:14:06.338Z,0.00
2019-05-12T02:15:08.186Z,0.00
2019-05-12T02:16:08.317Z,0.00
2019-05-12T02:17:08.683Z,0.00
2019-05-12T02:18:08.802Z,0.00
2019-05-12T02:19:08.776Z,0.00
2019-05-12T02:20:07.755Z,0.00
2019-05-12T02:21:08.379Z,0.00
2019-05-12T02:22:08.401Z,0.00
2019-05-12T02:23:08.787Z,0.00
2019-05-12T02:24:07.775Z,0.00
2019-05-12T02:25:08.085Z,0.00
2019-05-12T02:26:08.226Z,0.00
2019-05-12T02:27:08.281Z,0.00
2019-05-12T02:28:09.292Z,0.00
2019-05-12T02:29:07.877Z,0.00
2019-05-12T02:30:10.000Z,0.00
2019-05-12T02:31:09.606Z,0.00
2019-05-12T02:32:07.024Z,0.00
2019-05-12T02:33:07.084Z,0.00
2019-05-12T02:34:07.104Z,0.00
2019-05-12T02:35:07.144Z,0.00
2019-05-12T02:36:07.176Z,0.00
2019-05-12T02:37:07.211Z,0.00
2019-05-12T02:38:07.263Z,0.00
2019-05-12T02:39:07.290Z,0.00
2019-05-12T02:40:07.330Z,0.00
2019-05-12T02:41:07.368Z,0.00
2019-05-12T02:42:07.408Z,0.00
2019-05-12T02:43:07.440Z,0.00
2019-05-12T02:44:07.479Z,0.00
2019-05-12T02:45:07.516Z,0.00
2019-05-12T02:46:07.564Z,0.00
2019-05-12T02:47:07.593Z,0.00
2019-05-12T02:48:07.659Z,0.00
2019-05-12T02:49:07.668Z,0.00
2019-05-12T02:50:07.730Z,0.00
2019-05-12T02:51:07.745Z,0.00
2019-05-12T02:52:07.780Z,0.00
2019-05-12T02:53:07.910Z,0.00
2019-05-12T02:54:07.859Z,0.00
2019-05-12T02:55:07.903Z,0.00
2019-05-12T02:56:07.939Z,0.00
2019-05-12T02:57:07.978Z,0.00
2019-05-12T02:58:08.060Z,0.00
2019-05-12T02:59:08.049Z,0.00
2019-05-12T03:00:08.090Z,0.00
2019-05-12T03:01:08.122Z,4.00
2019-05-12T03:02:08.168Z,4.00
2019-05-12T03:03:08.255Z,4.00
2019-05-12T03:04:08.238Z,0.00
2019-05-12T03:05:08.277Z,4.00
2019-05-12T03:06:08.311Z,4.00
2019-05-12T03:07:08.351Z,4.00
2019-05-12T03:08:08.394Z,4.00
2019-05-12T03:09:08.425Z,8.00
2019-05-12T03:10:08.473Z,8.00
2019-05-12T03:11:08.512Z,4.00
2019-05-12T03:12:08.541Z,8.00
2019-05-12T03:13:08.580Z,8.00
2019-05-12T03:14:08.619Z,8.00
2019-05-12T03:15:08.652Z,16.00
2019-05-12T03:16:08.690Z,16.00
2019-05-12T03:17:08.736Z,16.00
2019-05-12T03:18:08.768Z,16.00
2019-05-12T03:19:08.804Z,20.00
2019-05-12T03:20:08.850Z,24.00
2019-05-12T03:21:08.878Z,24.00
2019-05-12T03:22:08.920Z,32.00
2019-05-12T03:23:08.957Z,36.00
2019-05-12T03:24:08.994Z,40.00
2019-05-12T03:25:20.472Z,48.00
2019-05-12T03:26:09.071Z,48.00
2019-05-12T03:27:09.108Z,40.00
2019-05-12T03:28:09.594Z,44.00
2019-05-12T03:29:09.186Z,48.00
2019-05-12T03:30:11.355Z,52.00
2019-05-12T03:31:09.260Z,64.00
2019-05-12T03:32:09.333Z,64.00
2019-05-12T03:33:11.803Z,64.00
2019-05-12T03:34:11.342Z,60.00
2019-05-12T03:35:09.647Z,72.00
2019-05-12T03:36:10.256Z,72.00
2019-05-12T03:37:09.490Z,68.00
2019-05-12T03:38:09.574Z,68.00
2019-05-12T03:39:09.576Z,72.00
2019-05-12T03:40:09.599Z,80.00
2019-05-12T03:41:09.638Z,84.00
2019-05-12T03:42:09.674Z,88.00
2019-05-12T03:43:09.714Z,88.00
2019-05-12T03:44:09.764Z,96.00
2019-05-12T03:45:09.789Z,104.00
2019-05-12T03:46:09.835Z,104.00
2019-05-12T03:47:09.865Z,112.00
2019-05-12T03:48:09.903Z,124.00
2019-05-12T03:49:09.942Z,136.00
2019-05-12T03:50:09.979Z,148.00
2019-05-12T03:51:10.017Z,176.00
2019-05-12T03:52:10.054Z,212.00
2019-05-12T03:53:11.181Z,192.00
2019-05-12T03:54:10.132Z,184.00
2019-05-12T03:55:27.300Z,180.00
2019-05-12T03:56:10.210Z,188.00
2019-05-12T03:57:10.245Z,220.00
2019-05-12T03:58:10.283Z,224.00
2019-05-12T03:59:10.321Z,228.00
2019-05-12T04:00:10.360Z,232.00
2019-05-12T04:01:10.398Z,244.00
2019-05-12T04:02:10.439Z,264.00
2019-05-12T04:03:10.475Z,288.00
2019-05-12T04:04:10.522Z,292.00
2019-05-12T04:05:10.557Z,312.00
2019-05-12T04:06:10.593Z,336.00
2019-05-12T04:07:10.624Z,336.00
2019-05-12T04:08:10.661Z,372.00
2019-05-12T04:09:10.759Z,336.00
2019-05-12T04:10:10.737Z,368.00
2019-05-12T04:11:10.775Z,392.00
2019-05-12T04:12:10.825Z,404.00
2019-05-12T04:13:10.849Z,392.00
2019-05-12T04:14:10.888Z,416.00
2019-05-12T04:15:10.926Z,456.00
2019-05-12T04:16:10.964Z,472.00
2019-05-12T04:17:11.010Z,540.00
2019-05-12T04:18:11.039Z,612.00
2019-05-12T04:19:14.407Z,660.00
2019-05-12T04:20:11.127Z,656.00
2019-05-12T04:21:11.158Z,648.00
2019-05-12T04:22:11.193Z,732.00
2019-05-12T04:23:11.232Z,888.00
2019-05-12T04:24:14.107Z,852.00
2019-05-12T04:25:14.271Z,928.00
2019-05-12T04:26:15.753Z,1072.00
2019-05-12T04:27:14.785Z,1212.00
2019-05-12T04:28:14.754Z,1136.00
2019-05-12T04:29:11.465Z,1132.00
2019-05-12T04:30:14.406Z,1132.00
2019-05-12T04:31:11.537Z,1132.00
2019-05-12T04:32:14.199Z,1280.00
2019-05-12T04:33:15.148Z,1316.00
2019-05-12T04:34:15.726Z,1244.00
2019-05-12T04:35:14.541Z,1220.00
2019-05-12T04:36:14.588Z,1652.00
2019-05-12T04:37:14.571Z,1704.00
2019-05-12T04:38:14.870Z,1944.00
2019-05-12T04:39:14.739Z,1960.00
2019-05-12T04:40:14.754Z,2076.00
2019-05-12T04:41:14.580Z,2304.00
2019-05-12T04:42:14.713Z,2020.00
2019-05-12T04:43:14.549Z,1780.00
2019-05-12T04:44:15.220Z,2152.00
2019-05-12T04:45:15.261Z,2440.00
2019-05-12T04:46:14.488Z,2568.00
2019-05-12T04:47:14.567Z,2676.00
2019-05-12T04:48:15.514Z,2960.00
2019-05-12T04:49:15.503Z,3156.00
2019-05-12T04:50:15.286Z,3296.00
2019-05-12T04:51:15.184Z,3904.00
2019-05-12T04:52:15.329Z,3772.00
2019-05-12T04:53:14.485Z,3064.00
2019-05-12T04:54:15.186Z,2884.00
2019-05-12T04:55:14.988Z,2696.00
2019-05-12T04:56:19.331Z,2884.00
2019-05-12T04:57:14.929Z,2696.00
2019-05-12T04:58:15.827Z,2796.00
2019-05-12T04:59:15.768Z,2944.00
2019-05-12T05:00:15.724Z,3128.00
2019-05-12T05:01:15.488Z,3028.00
2019-05-12T05:02:15.318Z,3528.00
2019-05-12T05:03:14.137Z,3432.00
2019-05-12T05:04:15.402Z,3516.00
2019-05-12T05:05:14.514Z,3604.00
2019-05-12T05:06:14.936Z,4016.00
2019-05-12T05:07:15.018Z,4084.00
2019-05-12T05:08:14.098Z,3096.00
2019-05-12T05:09:14.399Z,3176.00
2019-05-12T05:10:14.528Z,3184.00
2019-05-12T05:11:14.803Z,3300.00
2019-05-12T05:12:13.931Z,3200.00
2019-05-12T05:13:14.927Z,3424.00
2019-05-12T05:14:14.384Z,3328.00
2019-05-12T05:15:14.590Z,3244.00
2019-05-12T05:16:14.343Z,3172.00
2019-05-12T05:17:14.998Z,3136.00
2019-05-12T05:18:13.542Z,2808.00
2019-05-12T05:19:13.926Z,2816.00
2019-05-12T05:20:13.711Z,2772.00
2019-05-12T05:21:14.013Z,2640.00
2019-05-12T05:22:13.771Z,2552.00
2019-05-12T05:23:14.162Z,2604.00
2019-05-12T05:24:14.189Z,2760.00
2019-05-12T05:25:14.489Z,2844.00
2019-05-12T05:26:22.231Z,2916.00
2019-05-12T05:27:13.662Z,3064.00
2019-05-12T05:28:14.632Z,3124.00
2019-05-12T05:29:13.793Z,3452.00
2019-05-12T05:30:14.020Z,3068.00
2019-05-12T05:31:14.098Z,2736.00
2019-05-12T05:32:14.130Z,2704.00
2019-05-12T05:33:14.671Z,2780.00
2019-05-12T05:34:14.960Z,2880.00
2019-05-12T05:35:13.972Z,2868.00
2019-05-12T05:36:19.454Z,3060.00
2019-05-12T05:37:14.660Z,3652.00
2019-05-12T05:38:19.205Z,3528.00
2019-05-12T05:39:14.201Z,3688.00
2019-05-12T05:40:14.356Z,3988.00
2019-05-12T05:41:14.207Z,5252.00
2019-05-12T05:42:14.231Z,5444.00
2019-05-12T05:43:18.650Z,5100.00
2019-05-12T05:44:14.306Z,5072.00
2019-05-12T05:45:19.492Z,5424.00
2019-05-12T05:46:14.380Z,5416.00
2019-05-12T05:47:14.419Z,5388.00
2019-05-12T05:48:14.457Z,5484.00
2019-05-12T05:49:14.495Z,5632.00
2019-05-12T05:50:18.438Z,5420.00
2019-05-12T05:51:14.589Z,5552.00
2019-05-12T05:52:14.612Z,6492.00
2019-05-12T05:53:19.532Z,7248.00
2019-05-12T05:54:14.687Z,7836.00
2019-05-12T05:55:19.876Z,7380.00
2019-05-12T05:56:18.189Z,7172.00
2019-05-12T05:57:14.801Z,6892.00
2019-05-12T05:58:15.526Z,7108.00
2019-05-12T05:59:15.289Z,8072.00
2019-05-12T06:00:20.510Z,7600.00
2019-05-12T06:01:14.973Z,7768.00
2019-05-12T06:02:14.992Z,9696.00
2019-05-12T06:03:22.915Z,10936.00
2019-05-12T06:04:15.067Z,10056.00
2019-05-12T06:05:15.108Z,10376.00
2019-05-12T06:06:15.475Z,11960.00
2019-05-12T06:07:15.188Z,13892.00
2019-05-12T06:08:20.584Z,12032.00
2019-05-12T06:09:15.258Z,10724.00
2019-05-12T06:10:15.305Z,10292.00
2019-05-12T06:11:23.961Z,10708.00
2019-05-12T06:12:15.374Z,11392.00
2019-05-12T06:13:15.434Z,10608.00
2019-05-12T06:14:16.217Z,8920.00
2019-05-12T06:15:15.490Z,9336.00
2019-05-12T06:16:20.709Z,9344.00
2019-05-12T06:17:15.565Z,9264.00
2019-05-12T06:18:15.613Z,9752.00
2019-05-12T06:19:15.644Z,10372.00
2019-05-12T06:20:15.683Z,9964.00
2019-05-12T06:21:15.729Z,10644.00
2019-05-12T06:22:18.401Z,10388.00
2019-05-12T06:23:15.797Z,11640.00
2019-05-12T06:24:20.003Z,10756.00
2019-05-12T06:25:16.437Z,10600.00
2019-05-12T06:26:21.039Z,10020.00
2019-05-12T06:27:20.817Z,9956.00
2019-05-12T06:28:15.993Z,11068.00
2019-05-12T06:29:20.112Z,11540.00
2019-05-12T06:30:16.071Z,11012.00
2019-05-12T06:31:18.904Z,10768.00
2019-05-12T06:32:16.147Z,11088.00
2019-05-12T06:33:16.186Z,9420.00
2019-05-12T06:34:20.738Z,9256.00
2019-05-12T06:35:16.270Z,10592.00
2019-05-12T06:36:22.180Z,12352.00
2019-05-12T06:37:17.253Z,13156.00
2019-05-12T06:38:16.383Z,12780.00
2019-05-12T06:39:20.557Z,13628.00
2019-05-12T06:40:16.461Z,14260.00
2019-05-12T06:41:20.651Z,12196.00
2019-05-12T06:42:17.113Z,11308.00
2019-05-12T06:43:16.579Z,11924.00
2019-05-12T06:44:19.352Z,12568.00
2019-05-12T06:45:16.707Z,13220.00
2019-05-12T06:46:21.166Z,12500.00
2019-05-12T06:47:16.734Z,13672.00
2019-05-12T06:48:19.496Z,12728.00
2019-05-12T06:49:17.660Z,11964.00
2019-05-12T06:50:16.852Z,11352.00
2019-05-12T06:51:22.765Z,11904.00
2019-05-12T06:52:16.929Z,11472.00
2019-05-12T06:53:20.350Z,9648.00
2019-05-12T06:54:17.009Z,10196.00
2019-05-12T06:55:17.048Z,10724.00
2019-05-12T06:56:19.767Z,10268.00
2019-05-12T06:57:24.458Z,10640.00
2019-05-12T06:58:26.048Z,11036.00
2019-05-12T06:59:17.236Z,10868.00
2019-05-12T07:00:17.245Z,12200.00
2019-05-12T07:01:19.478Z,12548.00
2019-05-12T07:02:17.322Z,11552.00
2019-05-12T07:03:19.342Z,9768.00
2019-05-12T07:04:17.400Z,9828.00
2019-05-12T07:05:17.441Z,11652.00
2019-05-12T07:06:19.627Z,12972.00
2019-05-12T07:07:17.521Z,12696.00
2019-05-12T07:08:26.498Z,12808.00
2019-05-12T07:09:26.661Z,12412.00
2019-05-12T07:10:35.672Z,12452.00
2019-05-12T07:11:17.679Z,10680.00
2019-05-12T07:12:17.716Z,10188.00
2019-05-12T07:13:23.133Z,11064.00
2019-05-12T07:14:22.591Z,10696.00
2019-05-12T07:15:17.860Z,10888.00
2019-05-12T07:16:22.223Z,10980.00
2019-05-12T07:17:17.924Z,10992.00
2019-05-12T07:18:26.012Z,10456.00
2019-05-12T07:19:22.604Z,11200.00
2019-05-12T07:20:18.032Z,9264.00
2019-05-12T07:21:20.143Z,8908.00
2019-05-12T07:22:21.888Z,10184.00
2019-05-12T07:23:19.619Z,11636.00
2019-05-12T07:24:18.186Z,10612.00
2019-05-12T07:25:22.789Z,10868.00
2019-05-12T07:26:19.642Z,11464.00
2019-05-12T07:27:18.322Z,10564.00
2019-05-12T07:28:18.347Z,12836.00
2019-05-12T07:29:18.393Z,10792.00
2019-05-12T07:30:18.425Z,10576.00
2019-05-12T07:31:18.462Z,11296.00
2019-05-12T07:32:21.716Z,10184.00
2019-05-12T07:33:18.561Z,9844.00
2019-05-12T07:34:18.580Z,10808.00
2019-05-12T07:35:18.625Z,11844.00
2019-05-12T07:36:18.659Z,12212.00
2019-05-12T07:37:18.699Z,14048.00
2019-05-12T07:38:21.274Z,12172.00
2019-05-12T07:39:18.779Z,15184.00
2019-05-12T07:40:23.836Z,17184.00
2019-05-12T07:41:18.859Z,17056.00
2019-05-12T07:42:24.820Z,16096.00
2019-05-12T07:43:20.650Z,16416.00
2019-05-12T07:44:22.023Z,15224.00
2019-05-12T07:45:22.465Z,15904.00
2019-05-12T07:46:19.076Z,16064.00
2019-05-12T07:47:24.199Z,14280.00
2019-05-12T07:48:19.132Z,15436.00
2019-05-12T07:49:22.516Z,14488.00
2019-05-12T07:50:21.373Z,14308.00
2019-05-12T07:51:19.253Z,12576.00
2019-05-12T07:52:19.299Z,10436.00
2019-05-12T07:53:19.359Z,8892.00
2019-05-12T07:54:19.374Z,9756.00
2019-05-12T07:55:19.421Z,9164.00
2019-05-12T07:56:24.400Z,8796.00
2019-05-12T07:57:19.500Z,8824.00
2019-05-12T07:58:19.722Z,9204.00
2019-05-12T07:59:19.581Z,9112.00
2019-05-12T08:00:21.587Z,8652.00
2019-05-12T08:01:19.664Z,8932.00
2019-05-12T08:02:23.227Z,9724.00
2019-05-12T08:03:21.333Z,9724.00
2019-05-12T08:04:19.771Z,8720.00
2019-05-12T08:05:21.308Z,7544.00
2019-05-12T08:06:19.853Z,7804.00
2019-05-12T08:07:25.169Z,8984.00
2019-05-12T08:08:19.930Z,10092.00
2019-05-12T08:09:24.247Z,10508.00
2019-05-12T08:10:20.364Z,11304.00
2019-05-12T08:11:20.050Z,11124.00
2019-05-12T08:12:21.143Z,11344.00
2019-05-12T08:13:20.140Z,11500.00
2019-05-12T08:14:27.601Z,12636.00
2019-05-12T08:15:20.213Z,14088.00
2019-05-12T08:16:25.658Z,14960.00
2019-05-12T08:17:20.287Z,16928.00
2019-05-12T08:18:20.327Z,16544.00
2019-05-12T08:19:23.649Z,16384.00
2019-05-12T08:20:20.417Z,15792.00
2019-05-12T08:21:20.453Z,16736.00
2019-05-12T08:22:25.062Z,15664.00
2019-05-12T08:23:20.527Z,15080.00
2019-05-12T08:24:20.576Z,14724.00
2019-05-12T08:25:27.078Z,13740.00
2019-05-12T08:26:20.664Z,12632.00
2019-05-12T08:27:20.688Z,10284.00
2019-05-12T08:28:27.928Z,9452.00
2019-05-12T08:29:23.743Z,9324.00
2019-05-12T08:30:20.809Z,9656.00
2019-05-12T08:31:23.620Z,9744.00
2019-05-12T08:32:20.898Z,9984.00
2019-05-12T08:33:20.928Z,8948.00
2019-05-12T08:34:20.971Z,8288.00
2019-05-12T08:35:28.160Z,8548.00
2019-05-12T08:36:23.449Z,8324.00
2019-05-12T08:37:21.093Z,8192.00
2019-05-12T08:38:21.133Z,7868.00
2019-05-12T08:39:23.601Z,7744.00
2019-05-12T08:40:21.215Z,8068.00
2019-05-12T08:41:23.372Z,8280.00
2019-05-12T08:42:23.632Z,8476.00
2019-05-12T08:43:23.866Z,8436.00
2019-05-12T08:44:24.889Z,7280.00
2019-05-12T08:45:25.074Z,6452.00
2019-05-12T08:46:24.113Z,6340.00
2019-05-12T08:47:23.843Z,6360.00
2019-05-12T08:48:24.814Z,6412.00
2019-05-12T08:49:23.534Z,6348.00
2019-05-12T08:50:23.258Z,6184.00
2019-05-12T08:51:21.664Z,6116.00
2019-05-12T08:52:23.551Z,6216.00
2019-05-12T08:53:23.521Z,6428.00
2019-05-12T08:54:23.307Z,6452.00
2019-05-12T08:55:25.118Z,6400.00
2019-05-12T08:56:23.956Z,6416.00
2019-05-12T08:57:24.010Z,6732.00
2019-05-12T08:58:31.517Z,7000.00
2019-05-12T08:59:26.639Z,6828.00
2019-05-12T09:00:23.757Z,6292.00
2019-05-12T09:01:28.648Z,6184.00
2019-05-12T09:02:24.039Z,6188.00
2019-05-12T09:03:27.178Z,6536.00
2019-05-12T09:04:24.222Z,6980.00
2019-05-12T09:05:25.844Z,7840.00
2019-05-12T09:06:23.765Z,7036.00
2019-05-12T09:07:24.281Z,7336.00
2019-05-12T09:08:24.317Z,8016.00
2019-05-12T09:09:23.287Z,8616.00
2019-05-12T09:10:23.481Z,9316.00
2019-05-12T09:11:24.251Z,10692.00
2019-05-12T09:12:23.290Z,12360.00
2019-05-12T09:13:23.417Z,12692.00
2019-05-12T09:14:23.893Z,12144.00
2019-05-12T09:15:23.941Z,10508.00
2019-05-12T09:16:24.438Z,11436.00
2019-05-12T09:17:23.265Z,12824.00
2019-05-12T09:18:28.334Z,14084.00
2019-05-12T09:19:24.860Z,13156.00
2019-05-12T09:20:24.224Z,10456.00
2019-05-12T09:21:31.370Z,7776.00
2019-05-12T09:22:24.111Z,6120.00
2019-05-12T09:23:23.977Z,6400.00
2019-05-12T09:24:27.208Z,6192.00
2019-05-12T09:25:23.857Z,5956.00
2019-05-12T09:26:26.652Z,5932.00
2019-05-12T09:27:24.130Z,5800.00
2019-05-12T09:28:23.950Z,5656.00
2019-05-12T09:29:25.137Z,5464.00
2019-05-12T09:30:23.899Z,5476.00
2019-05-12T09:31:25.375Z,5736.00
2019-05-12T09:32:23.608Z,5856.00
2019-05-12T09:33:27.578Z,5828.00
2019-05-12T09:34:23.579Z,5412.00
2019-05-12T09:35:23.620Z,5276.00
2019-05-12T09:36:24.302Z,5208.00
2019-05-12T09:37:24.034Z,5196.00
2019-05-12T09:38:26.275Z,5312.00
2019-05-12T09:39:23.589Z,5512.00
2019-05-12T09:40:24.713Z,5892.00
2019-05-12T09:41:24.081Z,6264.00
2019-05-12T09:42:25.579Z,6604.00
2019-05-12T09:43:24.048Z,6628.00
2019-05-12T09:44:26.531Z,6628.00
2019-05-12T09:45:24.215Z,6980.00
2019-05-12T09:46:28.246Z,8496.00
2019-05-12T09:47:27.555Z,10832.00
2019-05-12T09:48:24.651Z,12908.00
2019-05-12T09:49:31.350Z,13544.00
2019-05-12T09:50:24.030Z,12508.00
2019-05-12T09:51:24.071Z,11748.00
2019-05-12T09:52:27.128Z,11980.00
2019-05-12T09:53:24.153Z,10904.00
2019-05-12T09:54:27.810Z,9328.00
2019-05-12T09:55:24.827Z,8404.00
2019-05-12T09:56:24.325Z,7236.00
2019-05-12T09:57:24.316Z,6716.00
2019-05-12T09:58:27.313Z,6864.00
2019-05-12T09:59:25.858Z,6980.00
2019-05-12T10:00:24.447Z,8080.00
2019-05-12T10:01:29.161Z,9788.00
2019-05-12T10:02:24.584Z,11416.00
2019-05-12T10:03:24.565Z,11176.00
2019-05-12T10:04:24.609Z,9948.00
2019-05-12T10:05:24.650Z,7780.00
2019-05-12T10:06:24.719Z,6080.00
2019-05-12T10:07:24.814Z,5704.00
2019-05-12T10:08:29.247Z,4808.00
2019-05-12T10:09:24.806Z,4836.00
2019-05-12T10:10:29.097Z,4864.00
2019-05-12T10:11:24.891Z,4916.00
2019-05-12T10:12:24.932Z,4948.00
2019-05-12T10:13:28.233Z,4980.00
2019-05-12T10:14:25.020Z,5052.00
2019-05-12T10:15:28.669Z,5312.00
2019-05-12T10:16:25.104Z,5764.00
2019-05-12T10:17:26.256Z,6248.00
2019-05-12T10:18:25.193Z,6712.00
2019-05-12T10:19:25.215Z,6116.00
2019-05-12T10:20:29.198Z,6244.00
2019-05-12T10:21:25.319Z,6672.00
2019-05-12T10:22:30.125Z,7196.00
2019-05-12T10:23:27.368Z,8804.00
2019-05-12T10:24:25.418Z,9100.00
2019-05-12T10:25:28.685Z,8332.00
2019-05-12T10:26:25.501Z,6612.00
2019-05-12T10:27:27.189Z,5760.00
2019-05-12T10:28:25.587Z,5932.00
2019-05-12T10:29:30.731Z,6548.00
2019-05-12T10:30:25.682Z,5864.00
2019-05-12T10:31:29.468Z,5200.00
2019-05-12T10:32:25.762Z,5332.00
2019-05-12T10:33:25.815Z,5784.00
2019-05-12T10:34:29.438Z,6456.00
2019-05-12T10:35:26.877Z,6956.00
2019-05-12T10:36:25.967Z,6568.00
2019-05-12T10:37:29.349Z,6088.00
2019-05-12T10:38:26.003Z,6268.00
2019-05-12T10:39:26.050Z,6788.00
2019-05-12T10:40:26.086Z,7764.00
2019-05-12T10:41:26.126Z,8736.00
2019-05-12T10:42:26.164Z,8728.00
2019-05-12T10:43:26.196Z,7460.00
2019-05-12T10:44:29.883Z,6628.00
2019-05-12T10:45:26.277Z,7332.00
2019-05-12T10:46:28.611Z,8416.00
2019-05-12T10:47:26.408Z,10776.00
2019-05-12T10:48:26.412Z,12120.00
2019-05-12T10:49:26.441Z,13020.00
2019-05-12T10:50:26.484Z,12360.00
2019-05-12T10:51:26.527Z,9420.00
2019-05-12T10:52:29.524Z,8664.00
2019-05-12T10:53:26.607Z,7336.00
2019-05-12T10:54:26.660Z,6840.00
2019-05-12T10:55:26.700Z,7560.00
2019-05-12T10:56:26.754Z,9184.00
2019-05-12T10:57:26.785Z,10028.00
2019-05-12T10:58:26.818Z,8980.00
2019-05-12T10:59:32.901Z,9452.00
2019-05-12T11:00:27.008Z,10052.00
2019-05-12T11:01:26.996Z,11104.00
2019-05-12T11:02:30.505Z,12096.00
2019-05-12T11:03:27.027Z,12032.00
2019-05-12T11:04:35.766Z,12512.00
2019-05-12T11:05:27.137Z,13936.00
2019-05-12T11:06:27.159Z,13640.00
2019-05-12T11:07:28.170Z,11124.00
2019-05-12T11:08:27.229Z,9708.00
2019-05-12T11:09:31.501Z,8572.00
2019-05-12T11:10:27.318Z,7076.00
2019-05-12T11:11:32.888Z,7200.00
2019-05-12T11:12:29.225Z,8232.00
2019-05-12T11:13:27.456Z,8676.00
2019-05-12T11:14:30.528Z,8648.00
2019-05-12T11:15:27.525Z,8560.00
2019-05-12T11:16:32.039Z,7952.00
2019-05-12T11:17:27.607Z,8184.00
2019-05-12T11:18:30.385Z,7584.00
2019-05-12T11:19:27.715Z,7968.00
2019-05-12T11:20:27.760Z,8564.00
2019-05-12T11:21:27.778Z,8904.00
2019-05-12T11:22:27.824Z,9296.00
2019-05-12T11:23:27.859Z,9344.00
2019-05-12T11:24:27.902Z,9144.00
2019-05-12T11:25:27.944Z,9240.00
2019-05-12T11:26:27.998Z,8784.00
2019-05-12T11:27:28.034Z,8860.00
2019-05-12T11:28:28.078Z,9088.00
2019-05-12T11:29:41.726Z,9536.00
2019-05-12T11:30:28.169Z,8120.00
2019-05-12T11:31:28.195Z,7528.00
2019-05-12T11:32:28.947Z,7564.00
2019-05-12T11:33:28.279Z,7832.00
2019-05-12T11:34:28.324Z,6920.00
2019-05-12T11:35:28.363Z,6208.00
2019-05-12T11:36:28.477Z,6252.00
2019-05-12T11:37:29.073Z,7600.00
2019-05-12T11:38:28.499Z,8800.00
2019-05-12T11:39:30.655Z,9900.00
2019-05-12T11:40:28.584Z,9240.00
2019-05-12T11:41:28.666Z,7788.00
2019-05-12T11:42:28.663Z,7496.00
2019-05-12T11:43:29.842Z,8540.00
2019-05-12T11:44:28.746Z,10336.00
2019-05-12T11:45:28.783Z,11476.00
2019-05-12T11:46:28.871Z,11880.00
2019-05-12T11:47:28.876Z,12848.00
2019-05-12T11:48:28.915Z,12704.00
2019-05-12T11:49:28.950Z,10676.00
2019-05-12T11:50:28.993Z,8448.00
2019-05-12T11:51:30.495Z,7452.00
2019-05-12T11:52:29.084Z,7012.00
2019-05-12T11:53:30.979Z,7404.00
2019-05-12T11:54:29.162Z,8308.00
2019-05-12T11:55:31.576Z,8592.00
2019-05-12T11:56:29.244Z,9392.00
2019-05-12T11:57:30.410Z,10568.00
2019-05-12T11:58:29.338Z,11196.00
2019-05-12T11:59:30.099Z,10896.00
2019-05-12T12:00:29.424Z,10900.00
2019-05-12T12:01:29.457Z,11208.00
2019-05-12T12:02:30.666Z,10876.00
2019-05-12T12:03:29.546Z,10400.00
2019-05-12T12:04:29.584Z,11256.00
2019-05-12T12:05:29.628Z,10520.00
2019-05-12T12:06:29.776Z,10064.00
2019-05-12T12:07:29.778Z,7776.00
2019-05-12T12:08:33.726Z,6128.00
2019-05-12T12:09:29.795Z,6584.00
2019-05-12T12:10:37.494Z,7036.00
2019-05-12T12:11:29.878Z,7348.00
2019-05-12T12:12:29.921Z,7760.00
2019-05-12T12:13:30.225Z,8384.00
2019-05-12T12:14:31.755Z,9548.00
2019-05-12T12:15:30.405Z,10720.00
2019-05-12T12:16:30.091Z,11752.00
2019-05-12T12:17:33.475Z,12964.00
2019-05-12T12:18:30.182Z,12328.00
2019-05-12T12:19:37.871Z,11760.00
2019-05-12T12:20:30.260Z,10804.00
2019-05-12T12:21:34.278Z,9472.00